sensor_id;sensor_type;location;lat;lon;timestamp;P1;durP1;ratioP1;P2;durP2;ratioP2
20090;SDS011;10205;49.678;6.560;2022-12-24T00:01:00;9.52;;;2.97;;
20090;SDS011;10205;49.678;6.560;2022-12-24T00:03:28;9.30;;;2.70;;
20090;SDS011;10205;49.678;6.560;2022-12-24T00:05:55;6.43;;;2.72;;
20090;SDS011;10205;49.678;6.560;2022-12-24T00:08:22;7.35;;;2.38;;
20090;SDS011;10205;49.678;6.560;2022-12-24T00:10:49;6.80;;;2.45;;
20090;SDS011;10205;49.678;6.560;2022-12-24T00:13:21;12.25;;;3.70;;
20090;SDS011;10205;49.678;6.560;2022-12-24T00:15:51;11.23;;;3.80;;
20090;SDS011;10205;49.678;6.560;2022-12-24T00:18:19;8.38;;;2.47;;
20090;SDS011;10205;49.678;6.560;2022-12-24T00:20:47;7.77;;;2.73;;
20090;SDS011;10205;49.678;6.560;2022-12-24T00:23:15;10.55;;;2.65;;
20090;SDS011;10205;49.678;6.560;2022-12-24T00:25:44;8.90;;;2.72;;
20090;SDS011;10205;49.678;6.560;2022-12-24T00:28:12;8.38;;;2.80;;
20090;SDS011;10205;49.678;6.560;2022-12-24T00:30:40;8.50;;;3.00;;
20090;SDS011;10205;49.678;6.560;2022-12-24T00:33:08;10.18;;;2.72;;
20090;SDS011;10205;49.678;6.560;2022-12-24T00:35:38;14.35;;;3.63;;
20090;SDS011;10205;49.678;6.560;2022-12-24T00:38:06;7.95;;;2.45;;
20090;SDS011;10205;49.678;6.560;2022-12-24T00:40:34;6.75;;;2.30;;
20090;SDS011;10205;49.678;6.560;2022-12-24T00:43:01;9.52;;;2.60;;
20090;SDS011;10205;49.678;6.560;2022-12-24T00:45:28;5.75;;;2.85;;
20090;SDS011;10205;49.678;6.560;2022-12-24T00:47:56;9.10;;;2.33;;
20090;SDS011;10205;49.678;6.560;2022-12-24T00:50:23;8.15;;;2.40;;
20090;SDS011;10205;49.678;6.560;2022-12-24T00:52:51;9.60;;;3.28;;
20090;SDS011;10205;49.678;6.560;2022-12-24T00:55:18;10.48;;;3.13;;
20090;SDS011;10205;49.678;6.560;2022-12-24T00:57:46;7.43;;;3.03;;
20090;SDS011;10205;49.678;6.560;2022-12-24T01:00:13;7.10;;;2.25;;
20090;SDS011;10205;49.678;6.560;2022-12-24T01:02:41;7.20;;;2.88;;
20090;SDS011;10205;49.678;6.560;2022-12-24T01:05:09;7.78;;;2.40;;
20090;SDS011;10205;49.678;6.560;2022-12-24T01:07:35;8.23;;;2.70;;
20090;SDS011;10205;49.678;6.560;2022-12-24T01:10:09;11.77;;;3.15;;
20090;SDS011;10205;49.678;6.560;2022-12-24T01:12:39;10.67;;;2.80;;
20090;SDS011;10205;49.678;6.560;2022-12-24T01:15:07;9.80;;;2.60;;
20090;SDS011;10205;49.678;6.560;2022-12-24T01:17:38;10.70;;;2.95;;
20090;SDS011;10205;49.678;6.560;2022-12-24T01:20:07;6.28;;;2.20;;
20090;SDS011;10205;49.678;6.560;2022-12-24T01:22:39;7.70;;;2.50;;
20090;SDS011;10205;49.678;6.560;2022-12-24T01:25:09;8.77;;;2.37;;
20090;SDS011;10205;49.678;6.560;2022-12-24T01:27:36;11.63;;;2.83;;
20090;SDS011;10205;49.678;6.560;2022-12-24T01:30:04;12.53;;;3.17;;
20090;SDS011;10205;49.678;6.560;2022-12-24T01:32:33;11.27;;;3.07;;
20090;SDS011;10205;49.678;6.560;2022-12-24T01:35:01;7.03;;;2.70;;
20090;SDS011;10205;49.678;6.560;2022-12-24T01:37:29;12.57;;;3.50;;
20090;SDS011;10205;49.678;6.560;2022-12-24T01:39:57;8.40;;;3.10;;
20090;SDS011;10205;49.678;6.560;2022-12-24T01:42:45;11.70;;;2.97;;
20090;SDS011;10205;49.678;6.560;2022-12-24T01:45:40;6.50;;;2.30;;
20090;SDS011;10205;49.678;6.560;2022-12-24T01:48:13;12.33;;;3.00;;
20090;SDS011;10205;49.678;6.560;2022-12-24T01:50:48;8.57;;;2.93;;
20090;SDS011;10205;49.678;6.560;2022-12-24T01:53:22;12.43;;;2.70;;
20090;SDS011;10205;49.678;6.560;2022-12-24T01:55:50;9.03;;;2.97;;
20090;SDS011;10205;49.678;6.560;2022-12-24T01:58:20;14.43;;;3.27;;
20090;SDS011;10205;49.678;6.560;2022-12-24T02:00:51;12.93;;;3.10;;
20090;SDS011;10205;49.678;6.560;2022-12-24T02:03:18;9.40;;;3.00;;
20090;SDS011;10205;49.678;6.560;2022-12-24T02:05:47;9.97;;;2.87;;
20090;SDS011;10205;49.678;6.560;2022-12-24T02:08:17;11.40;;;2.83;;
20090;SDS011;10205;49.678;6.560;2022-12-24T02:10:45;10.80;;;3.17;;
20090;SDS011;10205;49.678;6.560;2022-12-24T02:13:13;7.67;;;2.20;;
20090;SDS011;10205;49.678;6.560;2022-12-24T02:15:50;10.30;;;3.10;;
20090;SDS011;10205;49.678;6.560;2022-12-24T02:18:34;15.57;;;3.20;;
20090;SDS011;10205;49.678;6.560;2022-12-24T02:24:23;14.83;;;3.33;;
20090;SDS011;10205;49.678;6.560;2022-12-24T02:30:22;11.23;;;3.00;;
20090;SDS011;10205;49.678;6.560;2022-12-24T02:32:58;8.43;;;2.77;;
20090;SDS011;10205;49.678;6.560;2022-12-24T02:35:42;9.20;;;2.80;;
20090;SDS011;10205;49.678;6.560;2022-12-24T02:38:20;10.10;;;3.10;;
20090;SDS011;10205;49.678;6.560;2022-12-24T02:40:55;6.53;;;2.43;;
20090;SDS011;10205;49.678;6.560;2022-12-24T02:43:30;8.33;;;2.97;;
20090;SDS011;10205;49.678;6.560;2022-12-24T02:46:05;10.03;;;3.10;;
20090;SDS011;10205;49.678;6.560;2022-12-24T02:48:38;8.23;;;2.97;;
20090;SDS011;10205;49.678;6.560;2022-12-24T02:51:11;8.17;;;2.63;;
20090;SDS011;10205;49.678;6.560;2022-12-24T02:53:39;11.30;;;3.50;;
20090;SDS011;10205;49.678;6.560;2022-12-24T02:56:23;15.53;;;3.43;;
20090;SDS011;10205;49.678;6.560;2022-12-24T02:59:09;10.57;;;3.20;;
20090;SDS011;10205;49.678;6.560;2022-12-24T03:02:03;6.47;;;2.65;;
20090;SDS011;10205;49.678;6.560;2022-12-24T03:04:45;12.43;;;3.47;;
20090;SDS011;10205;49.678;6.560;2022-12-24T03:07:24;11.77;;;3.87;;
20090;SDS011;10205;49.678;6.560;2022-12-24T03:10:03;7.57;;;2.78;;
20090;SDS011;10205;49.678;6.560;2022-12-24T03:12:43;11.07;;;3.55;;
20090;SDS011;10205;49.678;6.560;2022-12-24T03:15:16;13.30;;;3.33;;
20090;SDS011;10205;49.678;6.560;2022-12-24T03:17:49;10.57;;;2.73;;
20090;SDS011;10205;49.678;6.560;2022-12-24T03:20:23;8.60;;;2.77;;
20090;SDS011;10205;49.678;6.560;2022-12-24T03:22:57;16.65;;;3.83;;
20090;SDS011;10205;49.678;6.560;2022-12-24T03:25:25;7.10;;;2.83;;
20090;SDS011;10205;49.678;6.560;2022-12-24T03:27:53;10.30;;;2.90;;
20090;SDS011;10205;49.678;6.560;2022-12-24T03:30:23;13.30;;;3.60;;
20090;SDS011;10205;49.678;6.560;2022-12-24T03:32:53;13.77;;;3.80;;
20090;SDS011;10205;49.678;6.560;2022-12-24T03:35:20;11.30;;;3.57;;
20090;SDS011;10205;49.678;6.560;2022-12-24T03:37:48;11.70;;;3.67;;
20090;SDS011;10205;49.678;6.560;2022-12-24T03:40:15;15.73;;;4.10;;
20090;SDS011;10205;49.678;6.560;2022-12-24T03:42:42;16.40;;;3.73;;
20090;SDS011;10205;49.678;6.560;2022-12-24T03:45:09;13.73;;;3.17;;
20090;SDS011;10205;49.678;6.560;2022-12-24T03:47:37;15.43;;;3.77;;
20090;SDS011;10205;49.678;6.560;2022-12-24T03:50:06;11.73;;;3.80;;
20090;SDS011;10205;49.678;6.560;2022-12-24T03:52:34;13.87;;;3.50;;
20090;SDS011;10205;49.678;6.560;2022-12-24T03:55:01;11.97;;;3.27;;
20090;SDS011;10205;49.678;6.560;2022-12-24T03:57:29;11.20;;;3.47;;
20090;SDS011;10205;49.678;6.560;2022-12-24T03:59:57;12.83;;;2.97;;
20090;SDS011;10205;49.678;6.560;2022-12-24T04:02:24;9.00;;;3.33;;
20090;SDS011;10205;49.678;6.560;2022-12-24T04:04:52;8.53;;;3.33;;
20090;SDS011;10205;49.678;6.560;2022-12-24T04:07:20;12.53;;;3.70;;
20090;SDS011;10205;49.678;6.560;2022-12-24T04:09:47;13.93;;;3.93;;
20090;SDS011;10205;49.678;6.560;2022-12-24T04:12:14;12.50;;;2.97;;
20090;SDS011;10205;49.678;6.560;2022-12-24T04:14:41;11.10;;;3.63;;
20090;SDS011;10205;49.678;6.560;2022-12-24T04:17:09;10.77;;;3.60;;
20090;SDS011;10205;49.678;6.560;2022-12-24T04:19:36;7.60;;;2.90;;
20090;SDS011;10205;49.678;6.560;2022-12-24T04:22:03;11.57;;;3.93;;
20090;SDS011;10205;49.678;6.560;2022-12-24T04:24:32;11.47;;;3.43;;
20090;SDS011;10205;49.678;6.560;2022-12-24T04:26:59;16.97;;;3.80;;
20090;SDS011;10205;49.678;6.560;2022-12-24T04:29:26;13.47;;;3.60;;
20090;SDS011;10205;49.678;6.560;2022-12-24T04:31:54;15.80;;;3.77;;
20090;SDS011;10205;49.678;6.560;2022-12-24T04:34:21;10.57;;;3.20;;
20090;SDS011;10205;49.678;6.560;2022-12-24T04:36:48;13.57;;;3.80;;
20090;SDS011;10205;49.678;6.560;2022-12-24T04:39:15;14.37;;;4.13;;
20090;SDS011;10205;49.678;6.560;2022-12-24T04:41:43;12.80;;;3.20;;
20090;SDS011;10205;49.678;6.560;2022-12-24T04:44:10;13.47;;;3.53;;
20090;SDS011;10205;49.678;6.560;2022-12-24T04:46:37;17.40;;;4.63;;
20090;SDS011;10205;49.678;6.560;2022-12-24T04:49:06;14.27;;;3.43;;
20090;SDS011;10205;49.678;6.560;2022-12-24T04:51:34;15.43;;;3.80;;
20090;SDS011;10205;49.678;6.560;2022-12-24T04:54:01;12.52;;;3.80;;
20090;SDS011;10205;49.678;6.560;2022-12-24T04:56:29;9.40;;;3.23;;
20090;SDS011;10205;49.678;6.560;2022-12-24T04:58:59;10.33;;;3.80;;
20090;SDS011;10205;49.678;6.560;2022-12-24T05:01:28;12.63;;;3.65;;
20090;SDS011;10205;49.678;6.560;2022-12-24T05:03:57;11.60;;;3.53;;
20090;SDS011;10205;49.678;6.560;2022-12-24T05:06:26;9.43;;;3.70;;
20090;SDS011;10205;49.678;6.560;2022-12-24T05:08:57;12.77;;;3.93;;
20090;SDS011;10205;49.678;6.560;2022-12-24T05:11:25;13.77;;;3.77;;
20090;SDS011;10205;49.678;6.560;2022-12-24T05:13:52;15.60;;;3.60;;
20090;SDS011;10205;49.678;6.560;2022-12-24T05:16:21;15.03;;;4.13;;
20090;SDS011;10205;49.678;6.560;2022-12-24T05:18:49;11.07;;;3.40;;
20090;SDS011;10205;49.678;6.560;2022-12-24T05:21:18;10.60;;;3.70;;
20090;SDS011;10205;49.678;6.560;2022-12-24T05:23:47;13.38;;;3.85;;
20090;SDS011;10205;49.678;6.560;2022-12-24T05:26:33;14.68;;;4.07;;
20090;SDS011;10205;49.678;6.560;2022-12-24T05:29:05;8.75;;;3.10;;
20090;SDS011;10205;49.678;6.560;2022-12-24T05:31:37;15.82;;;3.65;;
20090;SDS011;10205;49.678;6.560;2022-12-24T05:34:05;14.40;;;4.35;;
20090;SDS011;10205;49.678;6.560;2022-12-24T05:36:34;18.00;;;3.90;;
20090;SDS011;10205;49.678;6.560;2022-12-24T05:39:01;13.43;;;4.40;;
20090;SDS011;10205;49.678;6.560;2022-12-24T05:41:29;10.68;;;3.22;;
20090;SDS011;10205;49.678;6.560;2022-12-24T05:43:56;11.97;;;3.80;;
20090;SDS011;10205;49.678;6.560;2022-12-24T05:46:24;13.90;;;4.90;;
20090;SDS011;10205;49.678;6.560;2022-12-24T05:48:52;15.23;;;4.47;;
20090;SDS011;10205;49.678;6.560;2022-12-24T05:51:20;13.00;;;3.13;;
20090;SDS011;10205;49.678;6.560;2022-12-24T05:53:48;14.90;;;4.05;;
20090;SDS011;10205;49.678;6.560;2022-12-24T05:56:18;13.15;;;3.45;;
20090;SDS011;10205;49.678;6.560;2022-12-24T05:58:51;9.57;;;3.23;;
20090;SDS011;10205;49.678;6.560;2022-12-24T06:01:19;12.00;;;3.45;;
20090;SDS011;10205;49.678;6.560;2022-12-24T06:03:48;13.73;;;4.07;;
20090;SDS011;10205;49.678;6.560;2022-12-24T06:06:17;18.23;;;4.53;;
20090;SDS011;10205;49.678;6.560;2022-12-24T06:08:47;13.98;;;4.45;;
20090;SDS011;10205;49.678;6.560;2022-12-24T06:11:16;13.18;;;3.72;;
20090;SDS011;10205;49.678;6.560;2022-12-24T06:13:46;11.53;;;3.57;;
20090;SDS011;10205;49.678;6.560;2022-12-24T06:16:14;9.77;;;3.33;;
20090;SDS011;10205;49.678;6.560;2022-12-24T06:18:43;15.27;;;4.13;;
20090;SDS011;10205;49.678;6.560;2022-12-24T06:21:13;10.57;;;3.25;;
20090;SDS011;10205;49.678;6.560;2022-12-24T06:23:43;15.67;;;4.10;;
20090;SDS011;10205;49.678;6.560;2022-12-24T06:26:12;14.05;;;3.67;;
20090;SDS011;10205;49.678;6.560;2022-12-24T06:28:41;12.13;;;3.57;;
20090;SDS011;10205;49.678;6.560;2022-12-24T06:31:11;18.70;;;4.40;;
20090;SDS011;10205;49.678;6.560;2022-12-24T06:33:41;15.30;;;4.10;;
20090;SDS011;10205;49.678;6.560;2022-12-24T06:36:10;11.60;;;3.50;;
20090;SDS011;10205;49.678;6.560;2022-12-24T06:38:44;19.30;;;4.40;;
20090;SDS011;10205;49.678;6.560;2022-12-24T06:41:12;15.23;;;3.70;;
20090;SDS011;10205;49.678;6.560;2022-12-24T06:43:42;11.40;;;4.50;;
20090;SDS011;10205;49.678;6.560;2022-12-24T06:46:10;13.13;;;3.37;;
20090;SDS011;10205;49.678;6.560;2022-12-24T06:48:38;14.43;;;3.77;;
20090;SDS011;10205;49.678;6.560;2022-12-24T06:51:06;13.57;;;3.63;;
20090;SDS011;10205;49.678;6.560;2022-12-24T06:53:33;13.70;;;4.00;;
20090;SDS011;10205;49.678;6.560;2022-12-24T06:56:02;14.48;;;4.03;;
20090;SDS011;10205;49.678;6.560;2022-12-24T06:58:30;17.67;;;4.22;;
20090;SDS011;10205;49.678;6.560;2022-12-24T07:00:59;13.80;;;4.13;;
20090;SDS011;10205;49.678;6.560;2022-12-24T07:03:27;21.80;;;5.10;;
20090;SDS011;10205;49.678;6.560;2022-12-24T07:05:54;12.87;;;3.87;;
20090;SDS011;10205;49.678;6.560;2022-12-24T07:08:23;16.35;;;4.25;;
20090;SDS011;10205;49.678;6.560;2022-12-24T07:10:50;16.90;;;4.25;;
20090;SDS011;10205;49.678;6.560;2022-12-24T07:13:20;17.00;;;4.45;;
20090;SDS011;10205;49.678;6.560;2022-12-24T07:15:55;14.68;;;4.35;;
20090;SDS011;10205;49.678;6.560;2022-12-24T07:18:23;15.90;;;4.30;;
20090;SDS011;10205;49.678;6.560;2022-12-24T07:20:50;17.10;;;4.07;;
20090;SDS011;10205;49.678;6.560;2022-12-24T07:23:18;19.17;;;3.95;;
20090;SDS011;10205;49.678;6.560;2022-12-24T07:25:46;17.10;;;3.75;;
20090;SDS011;10205;49.678;6.560;2022-12-24T07:28:13;20.98;;;4.63;;
20090;SDS011;10205;49.678;6.560;2022-12-24T07:30:41;19.00;;;4.37;;
20090;SDS011;10205;49.678;6.560;2022-12-24T07:33:08;12.85;;;4.05;;
20090;SDS011;10205;49.678;6.560;2022-12-24T07:35:35;15.40;;;4.20;;
20090;SDS011;10205;49.678;6.560;2022-12-24T07:38:03;16.65;;;4.05;;
20090;SDS011;10205;49.678;6.560;2022-12-24T07:40:30;18.67;;;5.40;;
20090;SDS011;10205;49.678;6.560;2022-12-24T07:42:59;17.02;;;4.25;;
20090;SDS011;10205;49.678;6.560;2022-12-24T07:45:26;13.60;;;3.58;;
20090;SDS011;10205;49.678;6.560;2022-12-24T07:47:54;19.63;;;5.03;;
20090;SDS011;10205;49.678;6.560;2022-12-24T07:50:22;18.83;;;4.57;;
20090;SDS011;10205;49.678;6.560;2022-12-24T07:52:49;16.10;;;4.43;;
20090;SDS011;10205;49.678;6.560;2022-12-24T07:55:16;9.75;;;3.65;;
20090;SDS011;10205;49.678;6.560;2022-12-24T07:57:44;14.63;;;4.60;;
20090;SDS011;10205;49.678;6.560;2022-12-24T08:00:11;12.40;;;3.93;;
20090;SDS011;10205;49.678;6.560;2022-12-24T08:02:39;11.75;;;3.47;;
20090;SDS011;10205;49.678;6.560;2022-12-24T08:05:08;13.37;;;4.03;;
20090;SDS011;10205;49.678;6.560;2022-12-24T08:07:35;17.83;;;4.60;;
20090;SDS011;10205;49.678;6.560;2022-12-24T08:10:03;17.10;;;3.73;;
20090;SDS011;10205;49.678;6.560;2022-12-24T08:12:31;16.53;;;4.40;;
20090;SDS011;10205;49.678;6.560;2022-12-24T08:14:58;18.43;;;4.53;;
20090;SDS011;10205;49.678;6.560;2022-12-24T08:17:25;20.13;;;4.60;;
20090;SDS011;10205;49.678;6.560;2022-12-24T08:19:52;10.18;;;3.83;;
20090;SDS011;10205;49.678;6.560;2022-12-24T08:22:21;12.37;;;3.70;;
20090;SDS011;10205;49.678;6.560;2022-12-24T08:24:48;13.53;;;3.93;;
20090;SDS011;10205;49.678;6.560;2022-12-24T08:27:17;16.40;;;4.40;;
20090;SDS011;10205;49.678;6.560;2022-12-24T08:29:44;13.85;;;4.15;;
20090;SDS011;10205;49.678;6.560;2022-12-24T08:32:11;18.43;;;4.50;;
20090;SDS011;10205;49.678;6.560;2022-12-24T08:34:38;24.38;;;4.60;;
20090;SDS011;10205;49.678;6.560;2022-12-24T08:37:05;19.15;;;4.60;;
20090;SDS011;10205;49.678;6.560;2022-12-24T08:39:34;13.98;;;4.13;;
20090;SDS011;10205;49.678;6.560;2022-12-24T08:42:01;14.85;;;3.92;;
20090;SDS011;10205;49.678;6.560;2022-12-24T08:44:28;17.25;;;4.05;;
20090;SDS011;10205;49.678;6.560;2022-12-24T08:46:55;17.17;;;4.37;;
20090;SDS011;10205;49.678;6.560;2022-12-24T08:49:22;14.80;;;4.27;;
20090;SDS011;10205;49.678;6.560;2022-12-24T08:51:50;13.15;;;4.45;;
20090;SDS011;10205;49.678;6.560;2022-12-24T08:54:17;15.07;;;4.10;;
20090;SDS011;10205;49.678;6.560;2022-12-24T08:56:47;18.10;;;4.75;;
20090;SDS011;10205;49.678;6.560;2022-12-24T08:59:16;14.37;;;3.67;;
20090;SDS011;10205;49.678;6.560;2022-12-24T09:01:43;9.83;;;3.40;;
20090;SDS011;10205;49.678;6.560;2022-12-24T09:04:10;15.23;;;4.35;;
20090;SDS011;10205;49.678;6.560;2022-12-24T09:06:38;14.23;;;4.80;;
20090;SDS011;10205;49.678;6.560;2022-12-24T09:09:05;13.15;;;4.05;;
20090;SDS011;10205;49.678;6.560;2022-12-24T09:11:32;19.63;;;4.50;;
20090;SDS011;10205;49.678;6.560;2022-12-24T09:14:02;16.93;;;4.77;;
20090;SDS011;10205;49.678;6.560;2022-12-24T09:16:29;17.05;;;4.38;;
20090;SDS011;10205;49.678;6.560;2022-12-24T09:18:57;13.67;;;3.77;;
20090;SDS011;10205;49.678;6.560;2022-12-24T09:21:24;19.48;;;4.25;;
20090;SDS011;10205;49.678;6.560;2022-12-24T09:23:51;13.93;;;3.95;;
20090;SDS011;10205;49.678;6.560;2022-12-24T09:26:20;17.20;;;4.30;;
20090;SDS011;10205;49.678;6.560;2022-12-24T09:28:50;17.57;;;3.77;;
20090;SDS011;10205;49.678;6.560;2022-12-24T09:31:20;15.90;;;4.73;;
20090;SDS011;10205;49.678;6.560;2022-12-24T09:33:47;10.53;;;3.83;;
20090;SDS011;10205;49.678;6.560;2022-12-24T09:36:16;18.10;;;4.27;;
20090;SDS011;10205;49.678;6.560;2022-12-24T09:38:45;25.60;;;5.73;;
20090;SDS011;10205;49.678;6.560;2022-12-24T09:41:14;19.63;;;5.60;;
20090;SDS011;10205;49.678;6.560;2022-12-24T09:43:58;14.30;;;4.80;;
20090;SDS011;10205;49.678;6.560;2022-12-24T09:46:35;10.50;;;3.75;;
20090;SDS011;10205;49.678;6.560;2022-12-24T09:49:09;11.32;;;3.80;;
20090;SDS011;10205;49.678;6.560;2022-12-24T09:51:44;18.88;;;4.63;;
20090;SDS011;10205;49.678;6.560;2022-12-24T09:54:18;14.82;;;4.05;;
20090;SDS011;10205;49.678;6.560;2022-12-24T09:56:53;11.00;;;3.43;;
20090;SDS011;10205;49.678;6.560;2022-12-24T09:59:28;12.60;;;4.28;;
20090;SDS011;10205;49.678;6.560;2022-12-24T10:02:09;11.77;;;3.63;;
20090;SDS011;10205;49.678;6.560;2022-12-24T10:04:40;20.75;;;4.93;;
20090;SDS011;10205;49.678;6.560;2022-12-24T10:07:15;17.23;;;5.43;;
20090;SDS011;10205;49.678;6.560;2022-12-24T10:09:59;18.43;;;5.13;;
20090;SDS011;10205;49.678;6.560;2022-12-24T10:12:44;15.75;;;4.25;;
20090;SDS011;10205;49.678;6.560;2022-12-24T10:15:25;15.57;;;4.37;;
20090;SDS011;10205;49.678;6.560;2022-12-24T10:18:09;19.95;;;5.00;;
20090;SDS011;10205;49.678;6.560;2022-12-24T10:20:53;13.07;;;4.37;;
20090;SDS011;10205;49.678;6.560;2022-12-24T10:23:31;16.33;;;4.63;;
20090;SDS011;10205;49.678;6.560;2022-12-24T10:26:07;16.52;;;4.05;;
20090;SDS011;10205;49.678;6.560;2022-12-24T10:28:44;11.90;;;4.22;;
20090;SDS011;10205;49.678;6.560;2022-12-24T10:31:16;17.58;;;4.57;;
20090;SDS011;10205;49.678;6.560;2022-12-24T10:33:50;16.07;;;5.07;;
20090;SDS011;10205;49.678;6.560;2022-12-24T10:36:25;17.17;;;4.37;;
20090;SDS011;10205;49.678;6.560;2022-12-24T10:38:56;15.50;;;4.90;;
20090;SDS011;10205;49.678;6.560;2022-12-24T10:41:25;12.63;;;3.75;;
20090;SDS011;10205;49.678;6.560;2022-12-24T10:43:54;13.48;;;3.80;;
20090;SDS011;10205;49.678;6.560;2022-12-24T10:46:27;12.65;;;4.60;;
20090;SDS011;10205;49.678;6.560;2022-12-24T10:49:05;15.68;;;4.22;;
20090;SDS011;10205;49.678;6.560;2022-12-24T10:51:39;15.27;;;4.53;;
20090;SDS011;10205;49.678;6.560;2022-12-24T10:54:15;10.23;;;3.33;;
20090;SDS011;10205;49.678;6.560;2022-12-24T10:56:46;15.93;;;4.10;;
20090;SDS011;10205;49.678;6.560;2022-12-24T10:59:23;13.73;;;3.50;;
20090;SDS011;10205;49.678;6.560;2022-12-24T11:01:54;13.50;;;4.20;;
20090;SDS011;10205;49.678;6.560;2022-12-24T11:04:25;17.38;;;4.22;;
20090;SDS011;10205;49.678;6.560;2022-12-24T11:06:55;16.25;;;4.50;;
20090;SDS011;10205;49.678;6.560;2022-12-24T11:09:29;13.68;;;3.85;;
20090;SDS011;10205;49.678;6.560;2022-12-24T11:11:59;17.47;;;5.10;;
20090;SDS011;10205;49.678;6.560;2022-12-24T11:14:32;15.70;;;4.65;;
20090;SDS011;10205;49.678;6.560;2022-12-24T11:17:03;15.30;;;4.07;;
20090;SDS011;10205;49.678;6.560;2022-12-24T11:19:33;19.77;;;5.00;;
20090;SDS011;10205;49.678;6.560;2022-12-24T11:22:04;15.88;;;5.57;;
20090;SDS011;10205;49.678;6.560;2022-12-24T11:24:42;17.30;;;5.07;;
20090;SDS011;10205;49.678;6.560;2022-12-24T11:27:30;16.67;;;4.60;;
20090;SDS011;10205;49.678;6.560;2022-12-24T11:30:12;11.43;;;3.88;;
20090;SDS011;10205;49.678;6.560;2022-12-24T11:33:14;11.43;;;4.60;;
20090;SDS011;10205;49.678;6.560;2022-12-24T11:35:50;18.35;;;4.75;;
20090;SDS011;10205;49.678;6.560;2022-12-24T11:38:23;13.55;;;3.95;;
20090;SDS011;10205;49.678;6.560;2022-12-24T11:41:00;19.70;;;4.50;;
20090;SDS011;10205;49.678;6.560;2022-12-24T11:43:34;17.00;;;4.40;;
20090;SDS011;10205;49.678;6.560;2022-12-24T11:46:13;8.93;;;3.60;;
20090;SDS011;10205;49.678;6.560;2022-12-24T11:49:13;18.35;;;5.07;;
20090;SDS011;10205;49.678;6.560;2022-12-24T11:52:01;10.47;;;3.23;;
20090;SDS011;10205;49.678;6.560;2022-12-24T11:54:51;8.82;;;3.10;;
20090;SDS011;10205;49.678;6.560;2022-12-24T11:57:34;16.73;;;4.40;;
20090;SDS011;10205;49.678;6.560;2022-12-24T12:00:13;15.70;;;4.70;;
20090;SDS011;10205;49.678;6.560;2022-12-24T12:02:41;13.18;;;4.65;;
20090;SDS011;10205;49.678;6.560;2022-12-24T12:05:14;17.08;;;3.75;;
20090;SDS011;10205;49.678;6.560;2022-12-24T12:07:49;13.17;;;4.77;;
20090;SDS011;10205;49.678;6.560;2022-12-24T12:10:21;13.32;;;4.85;;
20090;SDS011;10205;49.678;6.560;2022-12-24T12:12:58;10.00;;;3.13;;
20090;SDS011;10205;49.678;6.560;2022-12-24T12:15:32;10.00;;;3.83;;
20090;SDS011;10205;49.678;6.560;2022-12-24T12:18:04;15.32;;;3.97;;
20090;SDS011;10205;49.678;6.560;2022-12-24T12:20:38;12.95;;;3.63;;
20090;SDS011;10205;49.678;6.560;2022-12-24T12:23:12;12.05;;;3.75;;
20090;SDS011;10205;49.678;6.560;2022-12-24T12:25:45;15.43;;;3.95;;
20090;SDS011;10205;49.678;6.560;2022-12-24T12:28:21;11.10;;;3.78;;
20090;SDS011;10205;49.678;6.560;2022-12-24T12:30:53;8.93;;;3.00;;
20090;SDS011;10205;49.678;6.560;2022-12-24T12:33:30;9.80;;;3.13;;
20090;SDS011;10205;49.678;6.560;2022-12-24T12:36:05;11.98;;;3.63;;
20090;SDS011;10205;49.678;6.560;2022-12-24T12:38:37;6.97;;;2.90;;
20090;SDS011;10205;49.678;6.560;2022-12-24T12:41:09;15.02;;;4.13;;
20090;SDS011;10205;49.678;6.560;2022-12-24T12:43:58;12.60;;;3.45;;
20090;SDS011;10205;49.678;6.560;2022-12-24T12:46:57;12.75;;;4.00;;
20090;SDS011;10205;49.678;6.560;2022-12-24T12:49:58;11.82;;;3.35;;
20090;SDS011;10205;49.678;6.560;2022-12-24T12:52:44;9.63;;;3.05;;
20090;SDS011;10205;49.678;6.560;2022-12-24T12:55:33;9.55;;;3.17;;
20090;SDS011;10205;49.678;6.560;2022-12-24T12:58:15;12.60;;;3.78;;
20090;SDS011;10205;49.678;6.560;2022-12-24T13:00:48;11.25;;;3.22;;
20090;SDS011;10205;49.678;6.560;2022-12-24T13:06:44;8.03;;;3.07;;
20090;SDS011;10205;49.678;6.560;2022-12-24T13:12:49;9.52;;;2.58;;
20090;SDS011;10205;49.678;6.560;2022-12-24T13:15:46;3.50;;;1.47;;
20090;SDS011;10205;49.678;6.560;2022-12-24T13:18:43;4.95;;;1.80;;
20090;SDS011;10205;49.678;6.560;2022-12-24T13:21:27;5.88;;;1.70;;
20090;SDS011;10205;49.678;6.560;2022-12-24T13:24:05;4.57;;;1.50;;
20090;SDS011;10205;49.678;6.560;2022-12-24T13:26:55;3.30;;;1.03;;
20090;SDS011;10205;49.678;6.560;2022-12-24T13:29:34;5.93;;;2.17;;
20090;SDS011;10205;49.678;6.560;2022-12-24T13:32:37;5.93;;;2.30;;
20090;SDS011;10205;49.678;6.560;2022-12-24T13:35:30;6.17;;;2.47;;
20090;SDS011;10205;49.678;6.560;2022-12-24T13:44:26;8.67;;;3.17;;
20090;SDS011;10205;49.678;6.560;2022-12-24T13:49:48;9.03;;;3.33;;
20090;SDS011;10205;49.678;6.560;2022-12-24T13:52:27;11.17;;;3.07;;
20090;SDS011;10205;49.678;6.560;2022-12-24T13:55:01;15.27;;;3.40;;
20090;SDS011;10205;49.678;6.560;2022-12-24T13:57:51;7.23;;;3.00;;
20090;SDS011;10205;49.678;6.560;2022-12-24T14:00:30;8.87;;;2.60;;
20090;SDS011;10205;49.678;6.560;2022-12-24T14:03:22;7.13;;;2.57;;
20090;SDS011;10205;49.678;6.560;2022-12-24T14:05:56;8.50;;;3.00;;
20090;SDS011;10205;49.678;6.560;2022-12-24T14:08:29;13.60;;;3.22;;
20090;SDS011;10205;49.678;6.560;2022-12-24T14:11:10;9.93;;;2.67;;
20090;SDS011;10205;49.678;6.560;2022-12-24T14:13:51;7.03;;;3.13;;
20090;SDS011;10205;49.678;6.560;2022-12-24T14:16:41;11.10;;;3.03;;
20090;SDS011;10205;49.678;6.560;2022-12-24T14:19:17;10.82;;;2.90;;
20090;SDS011;10205;49.678;6.560;2022-12-24T14:21:55;13.40;;;3.08;;
20090;SDS011;10205;49.678;6.560;2022-12-24T14:24:30;8.73;;;3.15;;
20090;SDS011;10205;49.678;6.560;2022-12-24T14:27:05;11.15;;;3.00;;
20090;SDS011;10205;49.678;6.560;2022-12-24T14:29:43;5.83;;;2.60;;
20090;SDS011;10205;49.678;6.560;2022-12-24T14:32:16;9.45;;;2.97;;
20090;SDS011;10205;49.678;6.560;2022-12-24T14:34:44;10.60;;;3.08;;
20090;SDS011;10205;49.678;6.560;2022-12-24T14:37:12;11.35;;;3.20;;
20090;SDS011;10205;49.678;6.560;2022-12-24T14:39:40;9.97;;;3.00;;
20090;SDS011;10205;49.678;6.560;2022-12-24T14:42:16;8.68;;;2.72;;
20090;SDS011;10205;49.678;6.560;2022-12-24T14:45:02;8.68;;;2.60;;
20090;SDS011;10205;49.678;6.560;2022-12-24T14:47:45;6.35;;;2.25;;
20090;SDS011;10205;49.678;6.560;2022-12-24T14:53:32;11.83;;;2.67;;
20090;SDS011;10205;49.678;6.560;2022-12-24T14:56:19;9.57;;;2.83;;
20090;SDS011;10205;49.678;6.560;2022-12-24T14:58:47;12.20;;;3.10;;
20090;SDS011;10205;49.678;6.560;2022-12-24T15:01:19;13.48;;;3.90;;
20090;SDS011;10205;49.678;6.560;2022-12-24T15:04:00;7.78;;;3.33;;
20090;SDS011;10205;49.678;6.560;2022-12-24T15:06:30;6.63;;;2.95;;
20090;SDS011;10205;49.678;6.560;2022-12-24T15:09:03;10.02;;;2.85;;
20090;SDS011;10205;49.678;6.560;2022-12-24T15:11:31;9.93;;;3.03;;
20090;SDS011;10205;49.678;6.560;2022-12-24T15:13:59;11.03;;;3.03;;
20090;SDS011;10205;49.678;6.560;2022-12-24T15:16:26;9.52;;;3.13;;
20090;SDS011;10205;49.678;6.560;2022-12-24T15:18:58;17.92;;;3.65;;
20090;SDS011;10205;49.678;6.560;2022-12-24T15:21:30;8.98;;;3.22;;
20090;SDS011;10205;49.678;6.560;2022-12-24T15:24:08;10.00;;;3.20;;
20090;SDS011;10205;49.678;6.560;2022-12-24T15:26:51;10.23;;;2.67;;
20090;SDS011;10205;49.678;6.560;2022-12-24T15:29:20;7.90;;;3.38;;
20090;SDS011;10205;49.678;6.560;2022-12-24T15:31:52;8.63;;;3.20;;
20090;SDS011;10205;49.678;6.560;2022-12-24T15:34:26;14.27;;;3.75;;